Time;durP1;ratioP1;P1;durP2;ratioP2;P2;SDS_P1;SDS_P2;PMS_P1;PMS_P2;Temp;Humidity;BMP_temperature;BMP_pressure;BME280_temperature;BME280_humidity;BME280_pressure;Samples;Min_cycle;Max_cycle;Signal;HPM_P1;HPM_P2
2020/12/05 00:01:43;;;;;;;30.93;19.17;;;1.40;99.90;;;;;;4943219;29;20200;-75
2020/12/05 00:04:09;;;;;;;33.60;20.53;;;1.40;99.90;;;;;;4939933;29;20652;-73
2020/12/05 00:06:35;;;;;;;39.67;22.63;;;1.40;99.90;;;;;;4945653;29;20185;-74
2020/12/05 00:09:00;;;;;;;32.27;20.93;;;1.40;99.90;;;;;;4948275;29;20300;-74
2020/12/05 00:11:27;;;;;;;34.20;20.77;;;1.40;99.90;;;;;;4950749;28;20664;-75
2020/12/05 00:13:53;;;;;;;29.40;19.63;;;1.40;99.90;;;;;;4950222;28;20207;-74
2020/12/05 00:16:19;;;;;;;30.57;21.00;;;1.40;99.90;;;;;;4949862;28;20720;-75
2020/12/05 00:18:47;;;;;;;33.97;20.13;;;1.50;99.90;;;;;;4944048;28;20217;-75
2020/12/05 00:21:16;;;;;;;31.73;20.90;;;1.40;99.90;;;;;;4944688;29;20544;-74
2020/12/05 00:23:42;;;;;;;28.20;19.97;;;1.40;99.90;;;;;;4947992;28;20231;-75
2020/12/05 00:26:07;;;;;;;32.53;20.03;;;1.40;99.90;;;;;;4944702;28;20271;-75
2020/12/05 00:28:33;;;;;;;29.00;19.80;;;1.50;99.90;;;;;;4948573;28;20209;-75
2020/12/05 00:30:58;;;;;;;33.60;20.00;;;1.40;99.90;;;;;;4943501;28;20188;-75
2020/12/05 00:33:24;;;;;;;34.73;20.97;;;1.40;99.90;;;;;;4949065;28;20190;-74
2020/12/05 00:35:50;;;;;;;31.10;22.07;;;1.40;99.90;;;;;;4948135;29;20268;-75
2020/12/05 00:38:15;;;;;;;33.07;22.17;;;1.50;99.90;;;;;;4947844;28;20681;-74
2020/12/05 00:40:41;;;;;;;31.33;21.27;;;1.40;99.90;;;;;;4948370;28;20213;-75
2020/12/05 00:43:06;;;;;;;32.77;20.47;;;1.50;99.90;;;;;;4951080;28;20221;-75
2020/12/05 00:45:32;;;;;;;30.10;20.37;;;1.50;99.90;;;;;;4950931;28;20185;-75
2020/12/05 00:47:58;;;;;;;32.90;20.57;;;1.50;99.90;;;;;;4949609;29;20233;-75
2020/12/05 00:50:24;;;;;;;32.30;19.17;;;1.50;99.90;;;;;;4954707;28;20985;-75
2020/12/05 00:52:49;;;;;;;30.67;19.20;;;1.50;99.90;;;;;;4955595;28;20217;-75
2020/12/05 00:55:15;;;;;;;32.40;20.03;;;1.50;99.90;;;;;;4937154;29;20241;-76
2020/12/05 00:57:41;;;;;;;29.73;18.90;;;1.50;99.90;;;;;;4956075;28;20173;-75
2020/12/05 01:00:07;;;;;;;33.20;19.53;;;1.50;99.90;;;;;;4955216;29;20552;-75
2020/12/05 01:02:33;;;;;;;27.23;18.77;;;1.40;99.90;;;;;;4955539;28;20252;-74
2020/12/05 01:04:59;;;;;;;23.27;17.47;;;1.50;99.90;;;;;;4957778;28;20667;-75
2020/12/05 01:07:25;;;;;;;26.50;18.53;;;1.50;99.90;;;;;;4957723;28;20677;-75
2020/12/05 01:09:52;;;;;;;25.67;17.67;;;1.50;99.90;;;;;;4956048;28;20217;-75
2020/12/05 01:12:18;;;;;;;23.37;17.20;;;1.50;99.90;;;;;;4957296;28;20177;-75
2020/12/05 01:14:44;;;;;;;25.77;17.73;;;1.50;99.90;;;;;;4957683;28;20185;-76
2020/12/05 01:17:10;;;;;;;24.10;17.63;;;1.50;99.90;;;;;;4957274;28;20232;-76
2020/12/05 01:19:36;;;;;;;24.93;18.30;;;1.50;99.90;;;;;;4957485;28;20207;-75
2020/12/05 01:22:02;;;;;;;24.43;17.17;;;1.50;99.90;;;;;;4956185;29;20181;-74
2020/12/05 01:24:27;;;;;;;28.03;18.43;;;1.50;99.90;;;;;;4957454;28;20546;-75
2020/12/05 01:26:53;;;;;;;27.60;18.80;;;1.50;99.90;;;;;;4956021;28;20181;-74
2020/12/05 01:29:18;;;;;;;30.43;19.77;;;1.50;99.90;;;;;;4957339;28;20217;-75
2020/12/05 01:31:48;;;;;;;26.70;17.50;;;1.50;99.90;;;;;;4957249;28;20177;-76
2020/12/05 01:34:14;;;;;;;29.60;19.07;;;1.50;99.90;;;;;;4957337;28;20181;-75
2020/12/05 01:36:44;;;;;;;27.23;18.63;;;1.50;99.90;;;;;;4956883;28;20201;-75
2020/12/05 01:39:11;;;;;;;27.20;19.00;;;1.50;99.90;;;;;;4962233;28;20208;-75
2020/12/05 01:41:37;;;;;;;30.47;19.77;;;1.50;99.90;;;;;;4960636;28;20274;-74
2020/12/05 01:44:03;;;;;;;27.27;18.27;;;1.50;99.90;;;;;;4958295;28;20206;-75
2020/12/05 01:46:40;;;;;;;24.87;18.63;;;1.50;99.90;;;;;;4957055;28;20189;-75
2020/12/05 01:49:08;;;;;;;27.13;18.67;;;1.50;99.90;;;;;;4957190;28;20255;-75
2020/12/05 01:51:35;;;;;;;26.63;18.83;;;1.40;99.90;;;;;;4956731;28;20191;-76
2020/12/05 01:54:01;;;;;;;25.43;17.40;;;1.50;99.90;;;;;;4956219;28;20178;-75
2020/12/05 01:56:27;;;;;;;25.73;17.17;;;1.40;99.90;;;;;;4956910;28;20252;-75
2020/12/05 01:58:54;;;;;;;26.40;17.30;;;1.40;99.90;;;;;;4956674;28;20209;-75
2020/12/05 02:01:24;;;;;;;25.23;18.03;;;1.40;99.90;;;;;;4956750;28;20199;-75
2020/12/05 02:03:54;;;;;;;27.37;18.30;;;1.40;99.90;;;;;;4956652;28;20177;-76
2020/12/05 02:06:38;;;;;;;29.80;17.90;;;1.40;99.90;;;;;;4955328;28;20173;-75
2020/12/05 02:09:16;;;;;;;27.53;17.43;;;1.40;99.90;;;;;;4955163;28;20276;-76
2020/12/05 02:11:52;;;;;;;22.37;16.77;;;1.40;99.90;;;;;;4956646;28;20205;-75
2020/12/05 02:14:21;;;;;;;21.17;16.10;;;1.50;99.90;;;;;;4956617;28;20255;-75
2020/12/05 02:16:49;;;;;;;19.77;15.87;;;1.50;99.90;;;;;;4956433;28;20177;-76
2020/12/05 02:19:17;;;;;;;21.50;15.10;;;1.50;99.90;;;;;;4956301;28;20201;-76
2020/12/05 02:21:43;;;;;;;18.13;14.43;;;1.50;99.90;;;;;;4956312;28;20719;-76
2020/12/05 02:24:10;;;;;;;18.93;14.70;;;1.50;99.90;;;;;;4956621;28;20177;-76
2020/12/05 02:26:36;;;;;;;17.43;14.20;;;1.50;99.90;;;;;;4954960;28;20285;-75
2020/12/05 02:29:02;;;;;;;19.73;14.70;;;1.50;99.90;;;;;;4956035;28;20201;-76
2020/12/05 02:31:28;;;;;;;17.03;13.23;;;1.50;99.90;;;;;;4955920;28;20235;-76
2020/12/05 02:33:54;;;;;;;17.30;13.87;;;1.50;99.90;;;;;;4956169;28;20207;-76
2020/12/05 02:36:20;;;;;;;17.07;14.07;;;1.50;99.90;;;;;;4954690;29;20645;-76
2020/12/05 02:39:00;;;;;;;15.50;13.27;;;1.40;99.90;;;;;;4954490;29;20309;-75
2020/12/05 02:41:27;;;;;;;17.07;13.53;;;1.40;99.90;;;;;;4956294;28;20181;-76
2020/12/05 02:43:53;;;;;;;20.00;14.17;;;1.40;99.90;;;;;;4956197;28;20189;-75
2020/12/05 02:46:20;;;;;;;18.50;13.90;;;1.40;99.90;;;;;;4956037;28;20651;-76
2020/12/05 02:48:46;;;;;;;16.50;13.37;;;1.40;99.90;;;;;;4955688;28;20249;-75
2020/12/05 02:51:12;;;;;;;18.70;14.23;;;1.40;99.90;;;;;;4955769;28;20588;-75
2020/12/05 02:53:38;;;;;;;26.43;16.17;;;1.40;99.90;;;;;;4955777;28;20186;-75
2020/12/05 02:56:04;;;;;;;26.43;16.00;;;1.40;99.90;;;;;;4955610;28;20676;-75
2020/12/05 02:58:29;;;;;;;22.97;16.10;;;1.40;99.90;;;;;;4955618;28;20177;-76
2020/12/05 03:00:55;;;;;;;19.23;14.73;;;1.40;99.90;;;;;;4955724;28;20205;-75
2020/12/05 03:03:22;;;;;;;21.60;15.63;;;1.40;99.90;;;;;;4952921;28;20663;-75
2020/12/05 03:05:49;;;;;;;21.13;15.43;;;1.50;99.90;;;;;;4950779;28;20189;-75
2020/12/05 03:08:15;;;;;;;18.87;14.27;;;1.50;99.90;;;;;;4941725;29;20342;-76
2020/12/05 03:10:41;;;;;;;22.00;15.50;;;1.50;99.90;;;;;;4953691;28;20280;-76
2020/12/05 03:13:07;;;;;;;25.20;15.87;;;1.50;99.90;;;;;;4954515;28;20181;-75
2020/12/05 03:15:33;;;;;;;24.50;16.47;;;1.50;99.90;;;;;;4954976;28;20200;-75
2020/12/05 03:17:59;;;;;;;21.63;15.47;;;1.50;99.90;;;;;;4954994;28;20181;-75
2020/12/05 03:20:25;;;;;;;21.80;15.00;;;1.50;99.90;;;;;;4954421;28;20212;-75
2020/12/05 03:22:52;;;;;;;21.60;14.97;;;1.50;99.90;;;;;;4954889;28;20178;-75
2020/12/05 03:25:17;;;;;;;22.87;14.57;;;1.50;99.90;;;;;;4955353;28;20263;-76
2020/12/05 03:27:44;;;;;;;18.10;13.37;;;1.50;99.90;;;;;;4955597;28;20181;-76
2020/12/05 03:30:09;;;;;;;18.20;13.67;;;1.50;99.90;;;;;;4955076;28;20328;-75
2020/12/05 03:32:35;;;;;;;14.00;12.33;;;1.50;99.90;;;;;;4953953;28;20711;-75
2020/12/05 03:35:01;;;;;;;19.27;13.17;;;1.50;99.90;;;;;;4955154;28;20256;-75
2020/12/05 03:37:28;;;;;;;15.77;13.10;;;1.60;99.90;;;;;;4955236;28;20196;-75
2020/12/05 03:39:53;;;;;;;105.70;40.47;;;1.60;99.90;;;;;;4953774;28;20240;-76
2020/12/05 03:42:20;;;;;;;49.90;23.50;;;1.60;99.90;;;;;;4956073;28;20184;-75
2020/12/05 03:44:46;;;;;;;39.53;20.87;;;1.50;99.90;;;;;;4955165;28;20185;-76
2020/12/05 03:47:11;;;;;;;27.00;16.63;;;1.60;99.90;;;;;;4955217;28;20553;-75
2020/12/05 03:49:37;;;;;;;87.20;38.83;;;1.60;99.90;;;;;;4954877;28;20205;-75
2020/12/05 03:52:05;;;;;;;58.83;29.87;;;1.50;99.90;;;;;;4954990;28;20656;-74
2020/12/05 03:54:31;;;;;;;23.03;15.43;;;1.50;99.90;;;;;;4955068;28;20236;-76
2020/12/05 03:56:57;;;;;;;24.00;14.67;;;1.60;99.90;;;;;;4953963;29;20181;-75
2020/12/05 03:59:23;;;;;;;82.63;35.57;;;1.50;99.90;;;;;;4953717;28;20232;-75
2020/12/05 04:01:49;;;;;;;106.87;44.93;;;1.50;99.90;;;;;;4955137;28;20182;-75
2020/12/05 04:04:15;;;;;;;53.53;26.03;;;1.50;99.90;;;;;;4955166;28;20181;-76
2020/12/05 04:06:41;;;;;;;23.83;15.20;;;1.50;99.90;;;;;;4954640;28;20706;-74
2020/12/05 04:09:07;;;;;;;19.27;13.30;;;1.60;99.90;;;;;;4969273;23;20213;-77
2020/12/05 04:11:37;;;;;;;13.87;11.13;;;1.60;99.90;;;;;;4957249;28;20218;-78
2020/12/05 04:14:03;;;;;;;14.27;11.13;;;1.60;99.90;;;;;;4956753;28;20185;-77
2020/12/05 04:16:29;;;;;;;11.77;10.57;;;1.70;99.90;;;;;;4965024;23;20213;-77
2020/12/05 04:18:55;;;;;;;11.17;10.17;;;1.70;99.90;;;;;;4965850;28;20232;-78
2020/12/05 04:21:21;;;;;;;11.60;10.40;;;1.70;99.90;;;;;;4973314;28;20177;-78
2020/12/05 04:23:46;;;;;;;10.93;9.80;;;1.70;99.90;;;;;;4972697;28;20231;-78
2020/12/05 04:26:12;;;;;;;11.07;9.90;;;1.80;99.90;;;;;;4979634;28;20207;-77
2020/12/05 04:28:38;;;;;;;10.87;9.73;;;1.80;99.90;;;;;;4979143;28;20176;-78
2020/12/05 04:31:04;;;;;;;10.00;9.00;;;1.80;99.90;;;;;;4979401;28;20755;-78
2020/12/05 04:33:30;;;;;;;10.50;9.50;;;1.80;99.90;;;;;;4975624;28;20174;-77
2020/12/05 04:35:56;;;;;;;9.87;8.97;;;1.80;99.90;;;;;;4979287;28;20243;-78
2020/12/05 04:38:22;;;;;;;11.00;9.87;;;1.80;99.90;;;;;;4979150;28;20177;-77
2020/12/05 04:40:48;;;;;;;11.00;9.70;;;1.90;99.90;;;;;;4978763;28;20203;-78
2020/12/05 04:43:13;;;;;;;10.57;9.40;;;1.90;99.90;;;;;;4979279;28;20180;-78
2020/12/05 04:45:39;;;;;;;10.60;9.37;;;1.90;99.90;;;;;;4979170;28;20204;-77
2020/12/05 04:48:06;;;;;;;11.20;9.90;;;1.90;99.90;;;;;;4977415;28;20180;-77
2020/12/05 04:50:34;;;;;;;10.50;9.43;;;1.90;99.90;;;;;;4976668;28;20302;-77
2020/12/05 04:53:11;;;;;;;15.80;10.50;;;1.90;99.90;;;;;;4978064;28;20242;-77
2020/12/05 04:55:41;;;;;;;18.47;11.20;;;1.90;99.90;;;;;;4976661;28;20225;-77
2020/12/05 04:58:17;;;;;;;14.57;11.27;;;1.90;99.90;;;;;;4976029;28;20176;-77
2020/12/05 05:00:44;;;;;;;15.73;11.73;;;1.90;99.90;;;;;;4969336;28;20691;-77
2020/12/05 05:03:13;;;;;;;13.60;11.53;;;1.80;99.90;;;;;;4947321;28;20550;-78
2020/12/05 05:05:39;;;;;;;12.67;10.23;;;1.80;99.90;;;;;;4961224;28;20189;-78
2020/12/05 05:08:05;;;;;;;12.83;10.83;;;1.80;99.90;;;;;;4975547;28;20181;-77
2020/12/05 05:10:33;;;;;;;12.00;10.90;;;1.80;99.90;;;;;;4966394;28;20209;-78
2020/12/05 05:13:04;;;;;;;16.90;12.97;;;1.80;99.90;;;;;;4974909;28;20204;-78
2020/12/05 05:15:31;;;;;;;12.63;11.07;;;1.80;99.90;;;;;;4976330;28;20203;-78
2020/12/05 05:18:02;;;;;;;14.63;11.43;;;1.80;99.90;;;;;;4977912;28;20165;-77
2020/12/05 05:20:30;;;;;;;12.57;11.27;;;1.80;99.90;;;;;;4976551;28;20188;-78
2020/12/05 05:23:14;;;;;;;13.77;10.90;;;1.70;99.90;;;;;;4970565;28;20687;-77
2020/12/05 05:26:00;;;;;;;11.80;10.63;;;1.80;99.90;;;;;;4978294;28;20176;-78
2020/12/05 05:28:33;;;;;;;12.20;10.37;;;1.80;99.90;;;;;;4978245;28;20179;-78
2020/12/05 05:33:43;;;;;;;11.37;10.27;;;1.80;99.90;;;;;;4978687;28;20704;-78
2020/12/05 05:36:21;;;;;;;11.07;9.97;;;1.80;99.90;;;;;;4978555;28;20227;-78
2020/12/05 05:39:09;;;;;;;10.70;9.70;;;1.80;99.90;;;;;;4978968;28;20231;-78
2020/12/05 05:41:39;;;;;;;10.83;9.73;;;1.80;99.90;;;;;;4978990;28;20180;-78
2020/12/05 05:44:12;;;;;;;11.37;10.27;;;1.90;99.90;;;;;;4977481;28;20211;-78
2020/12/05 05:46:42;;;;;;;11.30;10.13;;;1.90;99.90;;;;;;4978977;28;20189;-78
2020/12/05 05:49:10;;;;;;;10.73;9.77;;;1.90;99.90;;;;;;4979150;28;20219;-78
2020/12/05 05:51:39;;;;;;;11.97;10.77;;;1.90;99.90;;;;;;4977617;28;20184;-78
2020/12/05 05:54:26;;;;;;;11.37;10.30;;;1.90;99.90;;;;;;4976439;28;20184;-78
2020/12/05 05:57:10;;;;;;;10.93;9.93;;;1.90;99.90;;;;;;4978164;28;20191;-78
2020/12/05 05:59:44;;;;;;;11.93;10.70;;;1.90;99.90;;;;;;4978161;28;20211;-78
2020/12/05 06:02:15;;;;;;;14.40;11.10;;;1.90;99.90;;;;;;4977582;28;20665;-78
2020/12/05 06:04:42;;;;;;;11.40;10.37;;;1.90;99.90;;;;;;4977383;28;20215;-77
2020/12/05 06:07:12;;;;;;;12.13;11.03;;;1.90;99.90;;;;;;4977618;28;20204;-78
2020/12/05 06:09:50;;;;;;;11.97;10.87;;;1.80;99.90;;;;;;4974772;28;20213;-78
2020/12/05 06:12:27;;;;;;;12.70;10.50;;;1.80;99.90;;;;;;4972269;28;20643;-77
2020/12/05 06:14:54;;;;;;;11.30;10.20;;;1.90;99.90;;;;;;4975654;28;20196;-78
2020/12/05 06:17:24;;;;;;;11.53;10.40;;;1.80;99.90;;;;;;4976995;28;20199;-77
2020/12/05 06:19:52;;;;;;;12.43;11.23;;;1.90;99.90;;;;;;4941532;29;20209;-78
2020/12/05 06:22:42;;;;;;;11.23;10.23;;;1.90;99.90;;;;;;4940098;29;20265;-77
2020/12/05 06:25:12;;;;;;;11.17;10.10;;;1.90;99.90;;;;;;4943498;28;20178;-78
2020/12/05 06:28:08;;;;;;;12.50;11.27;;;1.90;99.90;;;;;;4942408;28;20590;-77
2020/12/05 06:30:34;;;;;;;13.47;12.07;;;1.90;99.90;;;;;;4951107;28;20703;-78
2020/12/05 06:32:59;;;;;;;12.17;11.07;;;1.90;99.90;;;;;;4956729;28;20185;-77
2020/12/05 06:35:25;;;;;;;12.60;11.40;;;1.90;99.90;;;;;;4944949;28;20213;-78
2020/12/05 06:37:53;;;;;;;13.53;12.23;;;1.90;99.90;;;;;;4941066;28;20192;-77
2020/12/05 06:40:19;;;;;;;13.00;11.80;;;1.90;99.90;;;;;;4941858;28;20205;-77
2020/12/05 06:42:48;;;;;;;17.20;14.63;;;1.90;99.90;;;;;;4940248;28;20268;-78
2020/12/05 06:45:26;;;;;;;14.77;12.70;;;1.90;99.90;;;;;;4955056;28;20197;-78
2020/12/05 06:48:14;;;;;;;13.23;11.97;;;1.90;99.90;;;;;;4950673;28;20179;-78
2020/12/05 06:50:45;;;;;;;13.40;11.97;;;1.90;99.90;;;;;;4946734;28;20218;-78
2020/12/05 06:53:19;;;;;;;18.70;13.83;;;1.90;99.90;;;;;;4942507;28;20657;-78
2020/12/05 06:55:46;;;;;;;15.47;13.93;;;1.90;99.90;;;;;;4948320;28;20188;-78
2020/12/05 06:58:12;;;;;;;83.10;33.87;;;1.90;99.90;;;;;;4942001;28;20237;-78
2020/12/05 07:00:39;;;;;;;59.90;28.87;;;1.80;99.90;;;;;;4953560;28;20204;-78
2020/12/05 07:03:07;;;;;;;31.13;20.43;;;1.90;99.90;;;;;;4940423;28;20182;-78
2020/12/05 07:05:35;;;;;;;44.23;21.57;;;1.80;99.90;;;;;;4943061;28;20177;-78
2020/12/05 07:08:18;;;;;;;57.47;27.23;;;1.80;99.90;;;;;;4952258;28;20181;-77
2020/12/05 07:11:09;;;;;;;31.53;18.87;;;1.80;99.90;;;;;;4954072;28;20689;-77
2020/12/05 07:13:43;;;;;;;28.20;18.67;;;1.90;99.90;;;;;;4940241;28;20188;-77
2020/12/05 07:16:09;;;;;;;17.43;14.03;;;1.80;99.90;;;;;;4942404;28;20538;-77
2020/12/05 07:18:38;;;;;;;18.57;16.33;;;1.70;99.90;;;;;;4960052;28;20183;-78
2020/12/05 07:21:05;;;;;;;17.47;14.87;;;1.80;99.90;;;;;;4961045;28;20395;-78
2020/12/05 07:23:31;;;;;;;17.00;13.90;;;1.70;99.90;;;;;;4968831;28;20182;-78
2020/12/05 07:25:59;;;;;;;16.97;12.93;;;1.70;99.90;;;;;;4969867;28;20548;-78
2020/12/05 07:28:26;;;;;;;21.17;16.40;;;1.70;99.90;;;;;;4963232;28;20184;-78
2020/12/05 07:30:52;;;;;;;23.63;16.40;;;1.70;99.90;;;;;;4973283;28;20215;-78
2020/12/05 07:33:20;;;;;;;16.60;14.80;;;1.70;99.90;;;;;;4946582;28;20225;-78
2020/12/05 07:35:55;;;;;;;15.37;13.30;;;1.60;99.90;;;;;;4976927;28;20230;-78
2020/12/05 07:38:21;;;;;;;15.87;14.17;;;1.60;99.90;;;;;;4949068;28;20173;-78
2020/12/05 07:40:47;;;;;;;14.33;12.87;;;1.60;99.90;;;;;;4954842;28;20625;-78
2020/12/05 07:43:20;;;;;;;14.30;12.70;;;1.60;99.90;;;;;;4977580;28;20631;-78
2020/12/05 07:45:48;;;;;;;15.37;13.77;;;1.60;99.90;;;;;;4961496;28;20178;-78
2020/12/05 07:48:16;;;;;;;18.50;14.30;;;1.50;99.90;;;;;;4960191;28;20186;-78
2020/12/05 07:50:42;;;;;;;15.20;13.30;;;1.50;99.90;;;;;;4946880;28;20216;-78
2020/12/05 07:53:26;;;;;;;20.10;15.47;;;1.50;99.90;;;;;;4954216;28;20205;-78
2020/12/05 07:55:52;;;;;;;22.87;15.57;;;1.60;99.90;;;;;;4967763;28;20247;-78
2020/12/05 07:58:18;;;;;;;30.77;18.17;;;1.60;99.90;;;;;;4976995;28;20179;-77
2020/12/05 08:00:44;;;;;;;23.67;17.27;;;1.70;99.90;;;;;;4976596;28;20287;-77
2020/12/05 08:03:47;;;;;;;24.93;15.90;;;1.70;99.90;;;;;;4976968;28;20184;-77
2020/12/05 08:06:24;;;;;;;24.80;18.07;;;1.80;99.90;;;;;;4977929;28;20203;-77
2020/12/05 08:09:01;;;;;;;23.97;18.33;;;1.80;99.90;;;;;;4977955;28;20176;-78
2020/12/05 08:11:27;;;;;;;30.47;20.33;;;1.80;99.90;;;;;;4968678;28;20172;-78
2020/12/05 08:13:53;;;;;;;26.83;20.50;;;1.90;99.90;;;;;;4977850;28;20263;-77
2020/12/05 08:16:20;;;;;;;25.40;18.83;;;1.90;99.90;;;;;;4977842;28;20196;-77
2020/12/05 08:18:47;;;;;;;23.23;18.00;;;1.90;99.90;;;;;;4978082;28;20655;-77
2020/12/05 08:21:13;;;;;;;24.83;18.37;;;1.90;99.90;;;;;;4977805;28;20200;-77
2020/12/05 08:23:39;;;;;;;21.07;17.60;;;1.90;99.90;;;;;;4977929;28;20228;-77
2020/12/05 08:26:13;;;;;;;20.17;17.27;;;2.00;99.90;;;;;;4977819;28;20204;-77
2020/12/05 08:28:46;;;;;;;23.17;18.03;;;2.00;99.90;;;;;;4976498;28;20204;-77
2020/12/05 08:31:14;;;;;;;22.00;17.80;;;2.00;99.90;;;;;;4977394;28;20284;-77
2020/12/05 08:33:44;;;;;;;23.03;17.63;;;2.00;99.90;;;;;;4977533;28;20223;-77
2020/12/05 08:36:41;;;;;;;26.03;18.10;;;2.10;99.90;;;;;;4977838;28;20178;-77
2020/12/05 08:39:09;;;;;;;94.27;46.93;;;2.00;99.90;;;;;;4977117;28;20212;-77
2020/12/05 08:41:46;;;;;;;27.97;20.07;;;2.00;99.90;;;;;;4977697;28;20201;-78
2020/12/05 08:44:13;;;;;;;23.93;18.67;;;1.90;99.90;;;;;;4976307;28;20608;-77
2020/12/05 08:46:39;;;;;;;23.77;17.50;;;1.90;99.90;;;;;;4976210;28;20177;-77
2020/12/05 08:49:14;;;;;;;20.03;16.53;;;1.80;99.90;;;;;;4977083;28;20201;-77
2020/12/05 08:51:44;;;;;;;21.53;16.57;;;1.80;99.90;;;;;;4976046;28;20176;-77
2020/12/05 08:54:10;;;;;;;24.27;17.50;;;1.80;99.90;;;;;;4977598;28;20180;-77
2020/12/05 08:56:36;;;;;;;22.73;17.87;;;1.80;99.90;;;;;;4977161;28;20589;-77
2020/12/05 08:59:01;;;;;;;24.17;18.43;;;1.90;99.90;;;;;;4976863;28;20596;-77
2020/12/05 09:01:37;;;;;;;19.77;16.40;;;1.90;99.90;;;;;;4976536;28;20627;-77
2020/12/05 09:04:04;;;;;;;23.43;18.40;;;2.00;99.90;;;;;;4977058;28;20176;-77
2020/12/05 09:06:29;;;;;;;30.90;20.43;;;2.00;99.90;;;;;;4976788;28;20184;-77
2020/12/05 09:08:55;;;;;;;28.37;21.53;;;2.00;99.90;;;;;;4963275;28;20201;-77
2020/12/05 09:11:22;;;;;;;25.23;19.53;;;2.00;99.90;;;;;;4968227;28;20224;-77
2020/12/05 09:13:48;;;;;;;24.10;18.83;;;2.10;99.90;;;;;;4969414;28;20177;-78
2020/12/05 09:16:13;;;;;;;23.77;18.50;;;2.20;99.90;;;;;;4975218;28;20199;-77
2020/12/05 09:18:44;;;;;;;24.63;18.27;;;2.30;99.90;;;;;;4976865;28;20702;-77
2020/12/05 09:21:16;;;;;;;22.53;18.10;;;2.20;99.90;;;;;;4976954;28;20293;-78
2020/12/05 09:23:42;;;;;;;30.33;22.17;;;2.30;99.90;;;;;;4976923;28;20177;-78
2020/12/05 09:26:08;;;;;;;31.27;23.17;;;2.30;99.90;;;;;;4977202;28;20181;-78
2020/12/05 09:28:34;;;;;;;31.70;22.83;;;2.30;99.90;;;;;;4973691;28;20200;-78
2020/12/05 09:31:05;;;;;;;31.47;22.10;;;2.40;99.90;;;;;;4969606;28;20243;-78
2020/12/05 09:33:31;;;;;;;30.07;20.40;;;2.40;99.90;;;;;;4978020;28;20264;-78
2020/12/05 09:35:57;;;;;;;30.97;21.23;;;2.40;99.90;;;;;;4978274;28;20173;-78
2020/12/05 09:38:23;;;;;;;24.40;19.33;;;;;;;;;;4978388;28;20172;-78
2020/12/05 09:40:49;;;;;;;26.77;20.17;;;;;;;;;;4972909;28;20812;-78
2020/12/05 09:43:15;;;;;;;34.60;22.73;;;;;;;;;;4967613;28;20228;-78
2020/12/05 09:45:43;;;;;;;46.20;27.17;;;;;;;;;;4959792;28;20266;-77
2020/12/05 09:48:09;;;;;;;25.50;19.30;;;;;;;;;;4944623;28;20534;-78
2020/12/05 09:50:35;;;;;;;30.20;20.60;;;;;;;;;;4961491;28;20220;-79
2020/12/05 09:53:01;;;;;;;24.67;20.13;;;;;;;;;;4962020;28;20174;-79
2020/12/05 09:55:28;;;;;;;27.90;20.40;;;;;;;;;;4960393;28;20174;-78
2020/12/05 09:57:54;;;;;;;28.70;19.73;;;;;;;;;;4976931;28;20208;-78
2020/12/05 10:00:20;;;;;;;30.67;19.33;;;;;;;;;;4976940;28;20209;-79
2020/12/05 10:02:46;;;;;;;28.00;20.60;;;;;;;;;;4978327;28;20654;-78
2020/12/05 10:05:12;;;;;;;26.83;19.30;;;;;;;;;;4976575;28;20240;-78
2020/12/05 10:07:39;;;;;;;28.93;19.87;;;;;;;;;;4976843;28;20188;-79
2020/12/05 10:10:06;;;;;;;31.23;21.53;;;;;;;;;;4974076;28;20245;-77
2020/12/05 10:12:35;;;;;;;27.60;19.50;;;;;;;;;;4975406;28;20223;-78
2020/12/05 10:15:02;;;;;;;27.60;20.90;;;;;;;;;;4977906;28;20271;-79
2020/12/05 10:17:28;;;;;;;27.63;20.20;;;;;;;;;;4978371;28;20641;-78
2020/12/05 10:19:54;;;;;;;32.60;22.17;;;;;;;;;;4976973;28;20205;-79
2020/12/05 10:22:20;;;;;;;31.60;21.50;;;;;;;;;;4978931;28;20232;-79
2020/12/05 10:24:46;;;;;;;30.90;20.77;;;;;;;;;;4978015;28;20206;-78
2020/12/05 10:27:12;;;;;;;33.97;22.73;;;;;;;;;;4978157;28;20279;-79
2020/12/05 10:29:39;;;;;;;36.20;22.63;;;;;;;;;;4978038;28;20221;-79
2020/12/05 10:32:05;;;;;;;37.30;23.90;;;;;;;;;;4978493;28;20182;-77
2020/12/05 10:34:31;;;;;;;38.70;23.83;;;;;;;;;;4978465;28;20172;-77
2020/12/05 10:36:57;;;;;;;34.50;23.83;;;;;;;;;;4963432;28;20259;-77
2020/12/05 10:39:23;;;;;;;45.10;25.83;;;;;;;;;;4977050;28;20209;-78
2020/12/05 10:41:50;;;;;;;44.57;26.60;;;;;;;;;;4979404;28;20189;-78
2020/12/05 10:44:16;;;;;;;48.43;29.57;;;;;;;;;;4977688;28;20176;-78
2020/12/05 10:46:43;;;;;;;49.83;29.60;;;;;;;;;;4977827;28;20185;-78
2020/12/05 10:49:10;;;;;;;50.20;31.30;;;;;;;;;;4979128;28;20272;-78
2020/12/05 10:51:36;;;;;;;50.37;30.93;;;;;;;;;;4978744;28;20179;-77
2020/12/05 10:54:02;;;;;;;47.97;30.90;;;;;;;;;;4979321;28;20180;-78
2020/12/05 10:56:28;;;;;;;55.23;32.30;;;;;;;;;;4979850;28;20180;-78
2020/12/05 10:58:54;;;;;;;49.90;32.80;;;;;;;;;;4977872;28;20208;-78
2020/12/05 11:01:20;;;;;;;55.37;33.00;;;;;;;;;;4979358;28;20173;-77
2020/12/05 11:03:47;;;;;;;54.80;33.50;;;;;;;;;;4977139;28;20611;-77
2020/12/05 11:06:19;;;;;;;49.10;30.87;;;;;;;;;;4978010;28;20592;-79
2020/12/05 11:08:45;;;;;;;56.77;31.37;;;;;;;;;;4968101;28;20185;-79
2020/12/05 11:11:11;;;;;;;46.50;29.43;;;;;;;;;;4970313;28;20280;-78
2020/12/05 11:13:37;;;;;;;48.73;28.10;;;;;;;;;;4979108;28;20636;-78
2020/12/05 11:16:03;;;;;;;44.37;28.50;;;;;;;;;;4977446;28;20240;-79
2020/12/05 11:18:29;;;;;;;44.13;27.00;;;;;;;;;;4979428;28;20185;-78
2020/12/05 11:20:56;;;;;;;47.67;28.07;;;;;;;;;;4979459;28;20218;-78
2020/12/05 11:23:22;;;;;;;51.10;27.97;;;;;;;;;;4978001;28;20181;-79
2020/12/05 11:25:48;;;;;;;52.83;29.00;;;;;;;;;;4975314;28;20212;-79
2020/12/05 11:28:14;;;;;;;46.67;27.70;;;;;;;;;;4974511;28;20572;-79
2020/12/05 11:30:40;;;;;;;47.77;28.33;;;;;;;;;;4977442;28;20216;-79
2020/12/05 11:33:07;;;;;;;50.27;30.13;;;;;;;;;;4977483;28;20193;-79
2020/12/05 11:35:33;;;;;;;51.27;29.83;;;;;;;;;;4980857;28;20176;-79
2020/12/05 11:37:59;;;;;;;48.37;29.80;;;;;;;;;;4963501;28;20183;-78
2020/12/05 11:40:25;;;;;;;55.77;30.63;;;;;;;;;;4993552;28;20222;-79
2020/12/05 11:42:51;;;;;;;52.70;31.40;;;;;;;;;;4981001;28;20176;-79
2020/12/05 11:45:17;;;;;;;52.17;30.40;;;;;;;;;;4956159;28;20188;-79
2020/12/05 11:47:43;;;;;;;62.70;29.60;;;;;;;;;;4979875;28;20190;-79
2020/12/05 11:50:09;;;;;;;47.27;28.67;;;;;;;;;;4977730;28;20220;-79
2020/12/05 11:52:35;;;;;;;45.70;27.73;;;;;;;;;;4981003;28;20304;-79
2020/12/05 11:55:01;;;;;;;43.63;26.40;;;;;;;;;;4981930;28;20176;-79
2020/12/05 11:57:27;;;;;;;45.23;26.27;;;;;;;;;;4972966;28;20185;-79
2020/12/05 11:59:53;;;;;;;53.10;26.57;;;;;;;;;;4974275;28;20213;-79
2020/12/05 12:02:19;;;;;;;47.57;27.33;;;;;;;;;;4980920;28;20176;-79
2020/12/05 12:04:45;;;;;;;48.00;26.97;;;;;;;;;;4963558;28;20554;-80
2020/12/05 12:07:11;;;;;;;42.00;25.47;;;;;;;;;;4963019;28;20183;-78
2020/12/05 12:09:37;;;;;;;46.93;29.97;;;;;;;;;;4974796;28;20210;-79
2020/12/05 12:12:03;;;;;;;40.40;23.23;;;;;;;;;;4949248;28;20182;-79
2020/12/05 12:14:30;;;;;;;52.57;28.00;;;;;;;;;;4953499;28;20178;-80
2020/12/05 12:16:56;;;;;;;40.67;22.20;;;;;;;;;;4955077;28;20186;-79
2020/12/05 12:19:22;;;;;;;39.67;21.37;;;;;;;;;;4989651;28;20203;-79
2020/12/05 12:21:48;;;;;;;42.10;22.87;;;;;;;;;;4980069;28;20207;-79
2020/12/05 12:24:14;;;;;;;33.40;20.33;;;;;;;;;;4968294;28;20189;-79
2020/12/05 12:26:40;;;;;;;36.30;20.90;;;;;;;;;;4978079;28;20212;-80
2020/12/05 12:29:06;;;;;;;55.07;24.47;;;;;;;;;;4979810;28;20198;-79
2020/12/05 12:31:32;;;;;;;79.67;31.43;;;;;;;;;;4967091;28;20195;-79
2020/12/05 12:33:58;;;;;;;37.60;20.20;;;;;;;;;;4948898;28;20701;-80
2020/12/05 12:36:24;;;;;;;41.83;20.73;;;;;;;;;;4958299;28;20188;-80
2020/12/05 12:38:50;;;;;;;30.27;17.83;;;;;;;;;;4963426;28;20274;-79
2020/12/05 12:41:17;;;;;;;35.07;19.37;;;;;;;;;;4981602;28;20180;-80
2020/12/05 12:43:44;;;;;;;24.63;14.97;;;;;;;;;;4983226;28;20185;-79
2020/12/05 12:46:10;;;;;;;25.77;16.37;;;;;;;;;;4981068;28;20185;-80
2020/12/05 12:48:38;;;;;;;29.27;16.47;;;;;;;;;;4969793;28;20197;-79
2020/12/05 12:51:04;;;;;;;28.57;17.40;;;;;;;;;;4949064;28;20264;-79
2020/12/05 12:53:30;;;;;;;26.00;15.43;;;;;;;;;;4962538;28;20185;-79
2020/12/05 12:55:56;;;;;;;33.13;17.40;;;;;;;;;;4982504;28;20643;-79
2020/12/05 13:01:06;;;;;;;24.30;14.13;;;;;;;;;;4968532;28;20240;-80
2020/12/05 13:03:32;;;;;;;21.37;13.77;;;;;;;;;;4983430;28;20189;-79
2020/12/05 13:05:59;;;;;;;24.97;15.37;;;;;;;;;;4984106;28;20194;-79
2020/12/05 13:08:25;;;;;;;27.57;15.67;;;;;;;;;;4983417;28;20195;-78
2020/12/05 13:10:51;;;;;;;27.27;15.33;;;;;;;;;;4967637;28;20699;-77
2020/12/05 13:13:18;;;;;;;26.40;14.77;;;;;;;;;;4977197;28;20227;-77